Details From LEAM - Almeria
To LELC - Murcia San Javier
Flight Number -
Tags decoded
Created
Modified
Stats Distance 98 nm / 181 km
Max Altitude 0 ft / 0 m
Waypoints 5
Social Downloads 0
Likes 0
Share VATSIM

Download

Looking for another format? Having issues loading an existing format? Contact us
Advertisement - Login to hide

Notes

Requested: LEAM AMR DINCO DIMER LELC

Route

LEAM AMR DINCO DIMER LELC

ID Type Via Altitude Latitude Longitude Leg Dist Tot Dist Heading (true) Name
O LEAM APT - 0 ft / 0 m 36.84393˚ -2.37010˚ - 0 nm - Almeria
AMR VOR - 0 ft / 0 m 36.83317˚ -2.25942˚ 5 nm 5 nm 97° / 97° ALMERIA VOR-DME
DINCO FIX - 0 ft / 0 m 37.25625˚ -1.28777˚ 53 nm 58 nm 61° / 62° -
DIMER FIX - 0 ft / 0 m 37.30623˚ -1.16859˚ 6 nm 64 nm 62° / 62° -
O LELC APT - 0 ft / 0 m 37.78026˚ -0.81226˚ 33 nm 97 nm 31° / 31° Murcia San Javier

Altitude Profile

Advertisement - Login to hide

LEAM

Details ICAO LEAM (LEI)
Name Almeria
Region Spain
Timezone Unknown (UTC+0.0)
Stats Elevation 70 ft / 21 m (AMSL)
Location 36.843935° -2.370097°
Runways 1
Magnetic Variation 0.289° W

METAR

LEAM 110030Z AUTO 26016G26KT 210V310 9999 BKN014/// BKN019/// OVC050/// 16/13 Q1005

Decode

TAF

TAF LEAM 102000Z 1021/1121 25012KT 9999 FEW040 TX15/1021Z TN11/1121Z TEMPO 1021/1110 24025G35KT PROB40 TEMPO 1102/1111 24030G60KT BKN012 TEMPO 1108/1113 4000 RA

Decode

Departure Runways

ID Width Length Bearing (true) Bearing (mag) Surface Threshold Offset Overrun Length
08 148 ft / 45 m 10,484 ft / 3,196 m 72.94° 73.23° Asphalt 492 ft / 150 m 191 ft / 58 m
26 148 ft / 45 m 10,484 ft / 3,196 m 252.96° 253.25° Asphalt 0 ft / 0 m 150 ft / 46 m

LELC

Details ICAO LELC (MJV)
Name Murcia San Javier
Region Spain
Timezone Europe/Madrid (UTC+1.0)
Stats Elevation 11 ft / 3 m (AMSL)
Location 37.780256° -0.812257°
Runways 3
Magnetic Variation 0.119° E

METAR

Not found

TAF

TAF LELC 102300Z 1100/1124 20015KT 9999 FEW045 TX16/1100Z TN10/1124Z TEMPO 1102/1111 23020G35KT TEMPO 1107/1110 23032G45KT TEMPO 1108/1112 4000 RA BECMG 1111/1113 27008KT

Decode

Destination Runways

ID Width Length Bearing (true) Bearing (mag) Surface Threshold Offset Overrun Length
05L 164 ft / 50 m 6,553 ft / 1,997 m 45.62° 45.50° Asphalt 656 ft / 200 m 0 ft / 0 m
05R 148 ft / 45 m 7,553 ft / 2,302 m 45.63° 45.51° Asphalt 0 ft / 0 m 656 ft / 200 m
14 197 ft / 60 m 2,657 ft / 810 m 136.05° 135.93° Grass 0 ft / 0 m 0 ft / 0 m
23L 148 ft / 45 m 7,553 ft / 2,302 m 225.65° 225.53° Asphalt 0 ft / 0 m 656 ft / 200 m
23R 164 ft / 50 m 6,553 ft / 1,997 m 225.63° 225.51° Asphalt 656 ft / 200 m 0 ft / 0 m
32 197 ft / 60 m 2,657 ft / 810 m 316.05° 315.93° Grass 0 ft / 0 m 0 ft / 0 m

Approach Navaids

Runway Type Ident Frequency Range Bearing (true) Bearing (mag) Slope Elevation
05R Localiser ISJ 110.50 MHz 18 nm / 33 km 45.68° 45.56° - 11 ft / 3 m (AMSL)
05R Glidescope ISJ 110.50 MHz 10 nm / 19 km 45.64° 45.52° 2.80° 11 ft / 3 m (AMSL)

Popular Alternatives